Time;durP1;ratioP1;P1;durP2;ratioP2;P2;SDS_P1;SDS_P2;PMS_P1;PMS_P2;Temp;Humidity;BMP_temperature;BMP_pressure;BME280_temperature;BME280_humidity;BME280_pressure;Samples;Min_cycle;Max_cycle;Signal;HPM_P1;HPM_P2
2022/05/23 00:00:44;;;;;;;1999.90;999.90;;;;;;;18.17;100.00;94639.56;5097648;28;20180;-60
2022/05/23 00:03:10;;;;;;;1999.90;999.90;;;;;;;18.16;100.00;94640.78;5097551;28;20190;-59
2022/05/23 00:05:35;;;;;;;1999.90;999.90;;;;;;;18.15;100.00;94626.22;5097345;28;20187;-69
2022/05/23 00:08:02;;;;;;;1999.90;999.90;;;;;;;18.20;100.00;94624.78;5097000;28;20200;-71
2022/05/23 00:10:27;;;;;;;1999.90;999.90;;;;;;;18.19;100.00;94614.97;5096995;28;20180;-68
2022/05/23 00:12:52;;;;;;;1999.90;999.90;;;;;;;18.05;100.00;94616.44;5096793;28;20191;-68
2022/05/23 00:15:18;;;;;;;1999.90;999.90;;;;;;;18.08;100.00;94606.44;5096936;28;20184;-69
2022/05/23 00:17:44;;;;;;;1999.90;999.90;;;;;;;18.02;100.00;94611.09;5096912;28;20203;-71
2022/05/23 00:20:12;;;;;;;1999.90;999.90;;;;;;;17.94;100.00;94605.16;5080002;28;20207;-60
2022/05/23 00:22:38;;;;;;;1999.90;999.90;;;;;;;17.90;100.00;94598.28;5096629;28;20268;-66
2022/05/23 00:25:05;;;;;;;1999.90;999.90;;;;;;;17.90;100.00;94598.28;5096693;28;20268;-67
2022/05/23 00:27:30;;;;;;;1999.90;999.90;;;;;;;17.91;100.00;94597.03;5096679;28;20280;-66
2022/05/23 00:29:56;;;;;;;1999.90;999.90;;;;;;;17.93;100.00;94602.84;5097324;28;20251;-66
2022/05/23 00:35:17;;;;;;;1999.90;999.90;;;;;;;17.92;100.00;94590.28;5114838;28;20199;-66
2022/05/23 00:37:43;;;;;;;1999.90;999.90;;;;;;;17.90;100.00;94589.97;5096987;28;20211;-59
2022/05/23 00:40:20;;;;;;;1999.90;999.90;;;;;;;17.92;100.00;94582.00;5096551;28;20238;-60
2022/05/23 00:45:30;;;;;;;1999.90;999.90;;;;;;;17.94;100.00;94582.28;5114884;28;20203;-60
2022/05/23 00:47:55;;;;;;;1999.90;999.90;;;;;;;17.90;100.00;94581.69;5096413;28;20196;-60
2022/05/23 00:50:20;;;;;;;1999.90;999.90;;;;;;;17.79;100.00;94584.22;5096455;28;20175;-60
2022/05/23 00:52:56;;;;;;;1999.90;999.90;;;;;;;17.85;100.00;94598.91;5097001;28;20271;-60
2022/05/23 00:55:27;;;;;;;1999.90;999.90;;;;;;;17.90;100.00;94609.31;5096716;28;20179;-65
2022/05/23 00:58:00;;;;;;;1999.90;999.90;;;;;;;17.91;100.00;94608.06;5096715;28;20180;-62
2022/05/23 01:00:26;;;;;;;1999.90;999.90;;;;;;;17.98;100.00;94610.50;5096240;28;20176;-66
2022/05/23 01:02:55;;;;;;;1999.90;999.90;;;;;;;18.00;100.00;94610.81;5096106;28;20180;-67
2022/05/23 01:05:20;;;;;;;1999.90;999.90;;;;;;;18.02;100.00;94611.09;5096082;28;20175;-67
2022/05/23 01:07:46;;;;;;;1999.90;999.90;;;;;;;17.88;100.00;94611.81;5095898;28;20172;-67
2022/05/23 01:10:12;;;;;;;1999.90;999.90;;;;;;;17.89;100.00;94596.75;5096192;28;20180;-67
2022/05/23 01:12:38;;;;;;;1999.90;999.90;;;;;;;17.90;100.00;94598.28;5096757;28;20179;-67
2022/05/23 01:15:16;;;;;;;1999.90;999.90;;;;;;;17.74;100.00;94590.38;5095934;28;20187;-60
2022/05/23 01:17:42;;;;;;;1999.90;999.90;;;;;;;17.76;100.00;94587.91;5096250;28;20342;-59
2022/05/23 01:20:07;;;;;;;1999.90;999.90;;;;;;;17.74;100.00;94584.88;5095887;28;20253;-59
2022/05/23 01:22:46;;;;;;;1999.90;999.90;;;;;;;17.67;100.00;94574.16;5095979;28;20274;-59
2022/05/23 01:25:35;;;;;;;1999.90;999.90;;;;;;;17.74;100.00;94584.88;5096015;28;20209;-59
2022/05/23 01:28:02;;;;;;;1999.90;999.90;;;;;;;17.76;100.00;94582.38;5096032;28;20183;-59
2022/05/23 01:30:30;;;;;;;1999.90;999.90;;;;;;;17.78;100.00;94577.91;5096049;28;20187;-59
2022/05/23 01:32:55;;;;;;;1999.90;999.90;;;;;;;17.81;100.00;94579.00;5095906;28;20187;-62
2022/05/23 01:35:21;;;;;;;1999.90;999.90;;;;;;;17.80;100.00;94585.72;5096289;28;20180;-59
2022/05/23 01:37:46;;;;;;;1999.90;999.90;;;;;;;17.76;100.00;94582.38;5095969;28;20187;-59
2022/05/23 01:40:15;;;;;;;1999.90;999.90;;;;;;;17.80;100.00;94571.91;5095828;28;20184;-59
2022/05/23 01:42:42;;;;;;;1999.90;999.90;;;;;;;17.82;100.00;94572.22;5096075;28;20183;-59
2022/05/23 01:45:08;;;;;;;1999.90;999.90;;;;;;;17.85;100.00;94563.75;5095734;28;20180;-59
2022/05/23 01:47:33;;;;;;;1999.90;999.90;;;;;;;17.85;100.00;94560.25;5095631;28;20256;-59
2022/05/23 01:49:59;;;;;;;1999.90;999.90;;;;;;;17.84;100.00;94555.94;5095868;28;20216;-60
2022/05/23 01:52:24;;;;;;;1999.90;999.90;;;;;;;17.80;100.00;94563.63;5095753;28;20194;-63
2022/05/23 01:54:50;;;;;;;1999.90;999.90;;;;;;;17.85;100.00;94560.25;5095504;28;20188;-59
2022/05/23 01:57:15;;;;;;;1999.90;999.90;;;;;;;17.73;100.00;94556.47;5098551;28;20199;-59
2022/05/23 02:02:25;;;;;;;1999.90;999.90;;;;;;;17.63;100.00;94548.72;5117489;28;20194;-59
2022/05/23 02:04:54;;;;;;;1999.90;999.90;;;;;;;17.59;100.00;94542.59;5099066;28;20192;-57
2022/05/23 02:07:20;;;;;;;1999.90;999.90;;;;;;;17.50;100.00;94548.94;5098946;28;20184;-57
2022/05/23 02:09:45;;;;;;;1999.90;999.90;;;;;;;17.49;100.00;94546.63;5098747;28;20280;-58
2022/05/23 02:12:12;;;;;;;1999.90;999.90;;;;;;;17.59;100.00;94551.63;5098929;28;20236;-67
2022/05/23 02:14:39;;;;;;;1999.90;999.90;;;;;;;17.61;100.00;94548.41;5099182;28;20195;-65
2022/05/23 02:17:08;;;;;;;1999.90;999.90;;;;;;;17.56;100.00;94551.81;5098598;28;20207;-69
2022/05/23 02:19:34;;;;;;;1999.90;999.90;;;;;;;17.52;100.00;94546.47;5098463;28;20267;-69
2022/05/23 02:21:59;;;;;;;1999.90;999.90;;;;;;;17.57;100.00;94545.06;5098868;28;20296;-69
2022/05/23 02:24:24;;;;;;;1999.90;999.90;;;;;;;17.58;100.00;94544.59;5099220;28;20198;-67
2022/05/23 02:26:50;;;;;;;1999.90;999.90;;;;;;;17.48;100.00;94556.16;5098655;28;20274;-63
2022/05/23 02:29:15;;;;;;;1999.90;999.90;;;;;;;17.55;100.00;94550.31;5098560;28;20204;-63
2022/05/23 02:31:40;;;;;;;1999.90;999.90;;;;;;;17.62;100.00;94560.97;5098643;28;20223;-59
2022/05/23 02:34:06;;;;;;;1999.90;999.90;;;;;;;17.62;100.00;94560.97;5098603;28;20188;-60
2022/05/23 02:36:32;;;;;;;1999.90;999.90;;;;;;;17.66;100.00;94550.53;5098788;28;20187;-59
2022/05/23 02:38:57;;;;;;;1999.90;999.90;;;;;;;17.58;100.00;94543.81;5098484;28;20187;-60
2022/05/23 02:41:22;;;;;;;1999.90;999.90;;;;;;;17.59;100.00;94540.59;5098445;28;20203;-60
2022/05/23 02:43:48;;;;;;;1999.90;999.90;;;;;;;17.55;100.00;94545.53;5098495;28;20211;-60
2022/05/23 02:46:14;;;;;;;1999.90;999.90;;;;;;;17.55;100.00;94528.22;5098187;28;20191;-65
2022/05/23 02:48:39;;;;;;;1999.90;999.90;;;;;;;17.45;100.00;94527.47;5098054;28;20207;-62
2022/05/23 02:51:05;;;;;;;1999.90;999.90;;;;;;;17.46;100.00;94515.22;5098291;28;20244;-63
2022/05/23 02:53:30;;;;;;;1999.90;999.90;;;;;;;17.32;100.00;94520.63;5098010;28;20190;-62
2022/05/23 02:55:55;;;;;;;1999.90;999.90;;;;;;;17.34;100.00;94512.66;5098234;28;20198;-63
2022/05/23 02:58:21;;;;;;;1999.90;999.90;;;;;;;17.33;100.00;94500.81;5098110;28;20191;-63
2022/05/23 03:00:46;;;;;;;1999.90;999.90;;;;;;;17.25;100.00;94510.69;5098059;28;20263;-62
2022/05/23 03:03:12;;;;;;;1999.90;999.90;;;;;;;17.24;100.00;94511.16;5098162;28;20202;-63
2022/05/23 03:05:48;;;;;;;1999.90;999.90;;;;;;;17.29;100.00;94516.03;5098520;28;20191;-62
2022/05/23 03:08:16;;;;;;;1999.90;999.90;;;;;;;17.29;100.00;94499.47;5096587;28;20211;-60
2022/05/23 03:10:42;;;;;;;1999.90;999.90;;;;;;;17.28;100.00;94497.94;5097815;28;20227;-60
2022/05/23 03:13:07;;;;;;;1999.90;999.90;;;;;;;17.25;100.00;94501.63;5097764;28;20219;-60
2022/05/23 03:15:33;;;;;;;1999.90;999.90;;;;;;;17.21;100.00;94487.25;5097847;28;20217;-59
2022/05/23 03:17:59;;;;;;;1999.90;999.90;;;;;;;17.20;100.00;94494.00;5097345;28;20207;-60
2022/05/23 03:20:25;;;;;;;1999.90;999.90;;;;;;;17.26;100.00;94492.16;5098324;28;20253;-60
2022/05/23 03:28:20;;;;;;;1999.90;999.90;;;;;;;17.23;100.00;94495.84;5116068;28;20207;-59
2022/05/23 03:30:46;;;;;;;1999.90;999.90;;;;;;;17.23;100.00;94504.13;5097608;28;20229;-59
2022/05/23 03:33:12;;;;;;;1999.90;999.90;;;;;;;17.26;100.00;94506.69;5097645;28;20180;-59
2022/05/23 03:35:38;;;;;;;1999.90;999.90;;;;;;;17.28;100.00;94503.47;5097542;28;20244;-59
2022/05/23 03:38:05;;;;;;;1999.90;999.90;;;;;;;17.31;100.00;94492.28;5097880;28;20278;-59
2022/05/23 03:40:31;;;;;;;1999.90;999.90;;;;;;;17.30;100.00;94489.97;5097978;28;20179;-58
2022/05/23 03:42:57;;;;;;;1999.90;999.90;;;;;;;17.22;100.00;94489.53;5097598;28;20308;-62
2022/05/23 03:45:23;;;;;;;1999.90;999.90;;;;;;;17.30;100.00;94478.94;5097537;28;20208;-62
2022/05/23 03:47:50;;;;;;;1999.90;999.90;;;;;;;17.25;100.00;94471.28;5097360;28;20187;-62
2022/05/23 03:50:17;;;;;;;1999.90;999.90;;;;;;;17.26;100.00;94479.09;5096994;28;20184;-62
2022/05/23 03:52:42;;;;;;;1999.90;999.90;;;;;;;17.23;100.00;94473.75;5097234;28;20266;-62
2022/05/23 03:55:08;;;;;;;1999.90;999.90;;;;;;;17.17;100.00;94475.63;5097318;28;20268;-62
2022/05/23 03:57:33;;;;;;;1999.90;999.90;;;;;;;17.20;100.00;94471.94;5115007;28;20180;-61
2022/05/23 03:59:59;;;;;;;1999.90;999.90;;;;;;;17.20;100.00;94463.66;5097140;28;20278;-63
2022/05/23 04:02:25;;;;;;;1999.90;999.90;;;;;;;17.18;100.00;94455.06;5097046;28;20198;-59
2022/05/23 04:04:51;;;;;;;1999.90;999.90;;;;;;;17.22;100.00;94463.97;5097591;28;20183;-58
2022/05/23 04:07:16;;;;;;;1999.90;999.90;;;;;;;17.21;100.00;94462.41;5096855;28;20202;-58
2022/05/23 04:09:42;;;;;;;1999.90;999.90;;;;;;;17.26;100.00;94450.75;5096614;28;20249;-58
2022/05/23 04:12:08;;;;;;;1999.90;999.90;;;;;;;17.27;100.00;94438.47;5097437;28;20210;-58
2022/05/23 04:14:33;;;;;;;1999.90;999.90;;;;;;;17.18;100.00;94438.50;5096808;28;20179;-58
2022/05/23 04:16:59;;;;;;;1999.90;999.90;;;;;;;17.27;100.00;94442.00;5097388;28;20204;-58
2022/05/23 04:19:25;;;;;;;1999.90;999.90;;;;;;;17.26;100.00;94434.19;5096633;28;20243;-62
2022/05/23 04:21:51;;;;;;;1999.90;999.90;;;;;;;17.34;100.00;94447.16;5114640;28;20176;-65
2022/05/23 04:24:18;;;;;;;1999.90;999.90;;;;;;;17.35;100.00;94447.91;5096645;28;20187;-67
2022/05/23 04:26:44;;;;;;;1999.90;999.90;;;;;;;17.42;100.00;94439.31;5096650;28;20191;-66
2022/05/23 04:29:10;;;;;;;1999.90;999.90;;;;;;;17.53;100.00;94436.78;5096476;28;20212;-67
2022/05/23 04:31:36;;;;;;;1999.90;999.90;;;;;;;17.47;100.00;94438.66;5096655;28;20283;-67
2022/05/23 04:36:47;;;;;;;1999.90;999.90;;;;;;;17.55;100.00;94445.38;5115017;28;20190;-59
2022/05/23 04:39:13;;;;;;;1999.90;999.90;;;;;;;17.45;100.00;94446.66;5096721;28;20237;-67
2022/05/23 04:41:38;;;;;;;1999.90;999.90;;;;;;;17.46;100.00;94437.91;5096761;28;20183;-68
2022/05/23 04:44:04;;;;;;;1999.90;999.90;;;;;;;17.36;100.00;94439.16;5096568;28;20188;-67
2022/05/23 04:46:30;;;;;;;1999.90;999.90;;;;;;;17.45;100.00;94438.38;5096716;28;20275;-67
2022/05/23 04:51:39;;;;;;;1999.90;999.90;;;;;;;17.50;100.00;94438.50;5114894;28;20206;-68
2022/05/23 04:54:06;;;;;;;1999.90;999.90;;;;;;;17.54;100.00;94439.06;5096133;28;20184;-63
2022/05/23 04:56:32;;;;;;;1999.90;999.90;;;;;;;17.73;100.00;94423.91;5096204;28;20188;-69
2022/05/23 04:58:57;;;;;;;1999.90;999.90;;;;;;;17.62;100.00;94428.41;5096287;28;20223;-57
2022/05/23 05:01:24;;;;;;;1999.90;999.90;;;;;;;17.70;100.00;94413.03;5096543;28;20206;-56
2022/05/23 05:03:50;;;;;;;1999.90;999.90;;;;;;;17.60;100.00;94409.59;5096107;28;20187;-57
2022/05/23 05:06:15;;;;;;;1999.90;999.90;;;;;;;17.56;100.00;94414.50;5096048;28;20184;-59
2022/05/23 05:08:41;;;;;;;1999.90;999.90;;;;;;;17.60;100.00;94411.56;5095991;28;20207;-59
2022/05/23 05:11:06;;;;;;;1999.90;999.90;;;;;;;17.61;100.00;94415.84;5096487;28;20191;-59
2022/05/23 05:13:33;;;;;;;1999.90;999.90;;;;;;;17.54;100.00;94405.16;5096102;28;20233;-59
2022/05/23 05:16:06;;;;;;;1999.90;999.90;;;;;;;17.57;100.00;94398.72;5095976;28;20184;-62
2022/05/23 05:18:32;;;;;;;1999.90;999.90;;;;;;;17.65;100.00;94394.34;5095788;28;20211;-61
2022/05/23 05:21:06;;;;;;;1999.90;999.90;;;;;;;17.62;100.00;94398.03;5096027;28;20237;-59
2022/05/23 05:23:32;;;;;;;1999.90;999.90;;;;;;;17.79;100.00;94385.34;5096194;28;20271;-62
2022/05/23 05:25:57;;;;;;;1999.90;999.90;;;;;;;17.69;100.00;94379.13;5095568;28;20247;-62
2022/05/23 05:28:22;;;;;;;1999.90;999.90;;;;;;;17.79;100.00;94379.81;5095443;28;20203;-62
2022/05/23 05:30:54;;;;;;;1999.90;999.90;;;;;;;18.04;100.00;94384.78;5097150;28;20266;-63
2022/05/23 05:33:24;;;;;;;1999.90;999.90;;;;;;;18.13;100.00;94387.44;5099922;28;20183;-61
2022/05/23 05:35:56;;;;;;;1999.90;999.90;;;;;;;18.05;100.00;94381.56;5099301;28;20207;-66
2022/05/23 05:38:28;;;;;;;1999.90;999.90;;;;;;;18.15;100.00;94387.75;5099021;28;20184;-66
2022/05/23 05:41:04;;;;;;;1999.90;999.90;;;;;;;18.24;100.00;94384.88;5099246;28;20183;-65
2022/05/23 05:43:34;;;;;;;1999.90;999.90;;;;;;;18.32;100.00;94380.50;5099404;28;20187;-65
2022/05/23 05:46:05;;;;;;;1999.90;999.90;;;;;;;18.36;100.00;94381.09;5099508;28;20184;-66
2022/05/23 05:48:34;;;;;;;1999.90;999.90;;;;;;;18.42;100.00;94379.19;5099251;28;20221;-66
2022/05/23 05:51:00;;;;;;;1999.90;999.90;;;;;;;18.54;100.00;94394.72;5099218;28;20191;-60
2022/05/23 05:53:32;;;;;;;1999.90;999.90;;;;;;;18.62;100.00;94393.84;5099463;28;20180;-59
2022/05/23 05:56:00;;;;;;;1999.90;999.90;;;;;;;18.72;100.00;94386.22;5099750;28;20191;-58
2022/05/23 05:58:26;;;;;;;1999.90;999.90;;;;;;;18.91;100.00;94385.47;5099308;28;20190;-59
2022/05/23 06:00:51;;;;;;;1999.90;999.90;;;;;;;18.63;100.00;94400.91;5098778;28;20192;-57
2022/05/23 06:03:16;;;;;;;1999.90;999.90;;;;;;;18.82;100.00;94387.59;5099038;28;20226;-58
2022/05/23 06:11:23;;;;;;;1999.90;999.90;;;;;;;18.80;100.00;94385.31;5117364;28;20232;-59
2022/05/23 06:13:49;;;;;;;1999.90;999.90;;;;;;;18.74;100.00;94389.25;5099252;28;20191;-59
2022/05/23 06:16:15;;;;;;;1999.90;999.90;;;;;;;18.95;100.00;94399.13;5098569;28;20192;-59
2022/05/23 06:18:40;;;;;;;1999.90;999.90;;;;;;;19.12;100.00;94402.88;5098860;28;20198;-58
2022/05/23 06:21:09;;;;;;;1999.90;999.90;;;;;;;19.22;100.00;94405.06;5098814;28;20190;-59
2022/05/23 06:23:37;;;;;;;1999.90;999.90;;;;;;;19.30;100.00;94391.56;5116551;28;20179;-58
2022/05/23 06:26:03;;;;;;;1999.90;999.90;;;;;;;19.58;100.00;94412.09;5098412;28;20202;-59
2022/05/23 06:28:28;;;;;;;1999.90;999.90;;;;;;;19.69;100.00;94411.44;5098766;28;20212;-62
2022/05/23 06:30:56;;;;;;;1999.90;999.90;;;;;;;19.54;100.00;94417.06;5098811;28;20186;-62
2022/05/23 06:33:22;;;;;;;1999.90;999.90;;;;;;;19.23;100.00;94409.34;5098413;28;20276;-62
2022/05/23 06:35:48;;;;;;;1999.90;999.90;;;;;;;19.68;100.00;94412.72;5098518;28;20187;-62
2022/05/23 06:38:13;;;;;;;1999.90;999.90;;;;;;;19.72;100.00;94419.56;5098527;28;20270;-62
2022/05/23 06:40:39;;;;;;;1999.90;999.90;;;;;;;20.26;100.00;94407.59;5097907;28;20176;-62
2022/05/23 06:43:04;;;;;;;1999.90;999.90;;;;;;;20.71;100.00;94422.59;5098030;28;20236;-62
2022/05/23 06:45:29;;;;;;;1999.90;999.90;;;;;;;21.82;100.00;94438.78;5098319;28;20184;-58
2022/05/23 06:47:55;;;;;;;1999.90;999.90;;;;;;;22.04;100.00;94447.97;5098147;28;20187;-57
2022/05/23 06:50:20;;;;;;;1999.90;999.90;;;;;;;22.04;100.00;94453.53;5098063;28;20218;-56
2022/05/23 06:52:46;;;;;;;1999.90;999.90;;;;;;;22.32;99.91;94462.72;5098038;28;20191;-54
2022/05/23 06:55:11;;;;;;;1999.90;999.90;;;;;;;22.19;99.36;94465.22;5098148;28;20269;-54
2022/05/23 06:57:37;;;;;;;1999.90;999.90;;;;;;;22.34;99.38;94460.22;5098201;28;20184;-54
2022/05/23 07:00:04;;;;;;;1999.90;999.90;;;;;;;22.30;98.56;94468.03;5098259;28;20184;-56
2022/05/23 07:02:29;;;;;;;1999.90;999.90;;;;;;;21.94;100.00;94466.16;5098239;28;20186;-65
2022/05/23 07:13:06;;;;;;;1999.90;999.90;;;;;;;21.09;100.00;94472.19;5116380;28;20191;-61
2022/05/23 07:15:36;;;;;;;1999.90;999.90;;;;;;;21.27;100.00;94491.25;5097598;28;20188;-61
2022/05/23 07:18:03;;;;;;;1999.90;999.90;;;;;;;21.47;100.00;94507.78;5098199;28;20235;-63
2022/05/23 07:20:28;;;;;;;1999.90;999.90;;;;;;;21.75;100.00;94533.78;5098034;28;20207;-60
2022/05/23 07:22:54;;;;;;;1999.90;999.90;;;;;;;21.70;100.00;94573.38;5098161;28;20176;-60
2022/05/23 07:25:20;;;;;;;1999.90;999.90;;;;;;;21.73;100.00;94578.75;5097638;28;20180;-56
2022/05/23 07:27:45;;;;;;;1999.90;999.90;;;;;;;21.66;100.00;94573.63;5097675;28;20248;-59
2022/05/23 07:30:11;;;;;;;1999.90;999.90;;;;;;;21.58;100.00;94567.00;5097551;28;20204;-60
2022/05/23 07:32:36;;;;;;;1999.90;999.90;;;;;;;21.78;100.00;94580.81;5097463;28;20181;-59
2022/05/23 07:35:02;;;;;;;1999.90;999.90;;;;;;;21.77;100.00;94590.41;5097362;28;20237;-59
2022/05/23 07:37:28;;;;;;;1999.90;999.90;;;;;;;22.06;100.00;94589.31;5097267;28;20240;-60
2022/05/23 07:39:56;;;;;;;1999.90;999.90;;;;;;;21.52;100.00;94574.53;5097293;28;20180;-62
2022/05/23 07:42:22;;;;;;;1999.90;999.90;;;;;;;20.16;100.00;94572.59;5097284;28;20271;-46
2022/05/23 07:44:47;;;;;;;1999.90;999.90;;;;;;;20.55;100.00;94587.72;5097245;28;20196;-61
2022/05/23 07:47:12;;;;;;;1999.90;999.90;;;;;;;20.03;100.00;94574.91;5097290;28;20188;-61
2022/05/23 07:49:38;;;;;;;1999.90;999.90;;;;;;;20.35;100.00;94573.84;5097071;28;20204;-60
2022/05/23 07:52:04;;;;;;;1999.90;999.90;;;;;;;20.14;100.00;94575.09;5097651;28;20187;-63
2022/05/23 08:02:41;;;;;;;1999.90;999.90;;;;;;;19.07;100.00;94544.75;5115646;28;20247;-52
2022/05/23 08:05:08;;;;;;;1999.90;999.90;;;;;;;18.77;100.00;94532.16;5097403;28;20215;-57
2022/05/23 08:07:34;;;;;;;1999.90;999.90;;;;;;;18.63;100.00;94527.38;5115393;28;20292;-54
2022/05/23 08:10:00;;;;;;;1999.90;999.90;;;;;;;18.42;100.00;94531.25;5096919;28;20207;-56
2022/05/23 08:12:27;;;;;;;1999.90;999.90;;;;;;;18.54;100.00;94530.25;5096725;28;20176;-55
2022/05/23 08:14:53;;;;;;;1999.90;999.90;;;;;;;18.98;100.00;94522.72;5096832;28;20210;-57
2022/05/23 08:17:18;;;;;;;1999.90;999.90;;;;;;;18.96;100.00;94511.34;5114815;28;20200;-56
2022/05/23 08:19:44;;;;;;;1999.90;999.90;;;;;;;19.16;100.00;94523.25;5097080;28;20183;-55
2022/05/23 08:22:10;;;;;;;1999.90;999.90;;;;;;;19.10;100.00;94510.56;5096565;28;20194;-54
2022/05/23 08:24:35;;;;;;;1999.90;999.90;;;;;;;18.65;100.00;94497.25;5096539;28;20209;-57
2022/05/23 08:27:01;;;;;;;1999.90;999.90;;;;;;;18.30;100.00;94482.50;5097256;28;20279;-56
2022/05/23 08:29:27;;;;;;;1999.90;999.90;;;;;;;18.10;100.00;94463.03;5096664;28;20255;-55
2022/05/23 08:31:53;;;;;;;1999.90;999.90;;;;;;;17.80;100.00;94401.44;5096676;28;20187;-54
2022/05/23 08:34:18;;;;;;;1999.90;999.90;;;;;;;17.66;100.00;94373.81;5096578;28;20273;-61
2022/05/23 08:36:43;;;;;;;1999.90;999.90;;;;;;;17.70;100.00;94368.84;5096403;28;20272;-57
2022/05/23 08:39:09;;;;;;;1999.90;999.90;;;;;;;17.33;100.00;94351.78;5096591;28;20191;-56
2022/05/23 08:41:41;;;;;;;1999.90;999.90;;;;;;;17.21;100.00;94360.31;5096700;28;20187;-57
2022/05/23 08:44:24;;;;;;;1999.90;999.90;;;;;;;17.57;100.00;94341.50;5096518;28;20204;-55
2022/05/23 08:47:02;;;;;;;1999.90;999.90;;;;;;;18.11;100.00;94352.03;5096982;28;20188;-57
2022/05/23 08:49:55;;;;;;;1999.90;999.90;;;;;;;19.08;100.00;94369.09;5096305;28;20324;-55
2022/05/23 08:52:38;;;;;;;1999.90;999.90;;;;;;;18.96;100.00;94367.44;5096623;28;20187;-54
2022/05/23 08:55:12;;;;;;;1999.90;999.90;;;;;;;18.90;100.00;94374.88;5096478;28;20207;-57
2022/05/23 08:57:50;;;;;;;1999.90;999.90;;;;;;;19.08;100.00;94369.88;5096731;28;20191;-57
2022/05/23 09:00:20;;;;;;;1999.90;999.90;;;;;;;19.40;100.00;94379.91;5096822;28;20183;-57
2022/05/23 09:02:55;;;;;;;1999.90;999.90;;;;;;;20.16;100.00;94383.28;5096878;28;20187;-57
2022/05/23 09:05:32;;;;;;;1999.90;999.90;;;;;;;22.05;100.00;94377.19;5096166;28;20191;-57
2022/05/23 09:08:13;;;;;;;1999.90;999.90;;;;;;;23.00;100.00;94391.94;5096739;28;20209;-57
2022/05/23 09:10:59;;;;;;;1999.90;999.90;;;;;;;22.72;97.49;94400.31;5095985;28;20215;-54
2022/05/23 09:13:30;;;;;;;1999.90;999.90;;;;;;;23.17;94.82;94409.41;5095856;28;20183;-59
2022/05/23 09:16:04;;;;;;;1999.90;999.90;;;;;;;23.89;89.78;94405.16;5096672;28;20183;-56
2022/05/23 09:18:57;;;;;;;1999.90;999.90;;;;;;;23.53;89.92;94394.41;5096622;28;20228;-55
2022/05/23 09:22:12;;;;;;;1999.90;999.90;;;;;;;24.39;85.51;94388.19;5096348;28;20261;-58
2022/05/23 09:24:09;;;;;;;1999.90;999.90;;;;;;;24.38;85.57;94381.09;5113807;28;20215;-58
2022/05/23 09:26:34;;;;;;;1999.90;999.90;;;;;;;24.34;85.16;94372.25;5095920;28;20184;-58
2022/05/23 09:29:00;;;;;;;1999.90;999.90;;;;;;;24.52;80.13;94369.59;5095744;28;20203;-58
2022/05/23 09:31:47;;;;;;;1999.90;999.90;;;;;;;24.03;82.50;94364.28;5095801;28;20194;-57
2022/05/23 09:34:50;;;;;;;1999.90;999.90;;;;;;;23.81;83.41;94362.34;5114184;28;20183;-65
2022/05/23 09:37:21;;;;;;;1999.90;999.90;;;;;;;23.37;84.23;94359.72;5095191;28;20197;-66
2022/05/23 09:40:06;;;;;;;1999.90;999.90;;;;;;;23.76;82.50;94357.56;5096121;28;20227;-66
2022/05/23 09:48:17;;;;;;;1999.90;999.90;;;;;;;25.52;77.11;94338.69;5113602;28;20199;-58
2022/05/23 09:51:07;;;;;;;1999.90;999.90;;;;;;;25.38;71.76;94339.13;5095465;28;20180;-63
2022/05/23 09:53:52;;;;;;;1999.90;999.90;;;;;;;25.22;70.94;94349.94;5095578;28;20210;-58
2022/05/23 09:56:29;;;;;;;1999.90;999.90;;;;;;;25.97;69.53;94334.13;5095873;28;20202;-59
2022/05/23 09:58:56;;;;;;;1999.90;999.90;;;;;;;26.70;66.92;94331.78;5096082;28;20179;-59
2022/05/23 10:01:27;;;;;;;1999.90;999.90;;;;;;;26.18;66.96;94329.47;5095469;28;20176;-59
2022/05/23 10:03:52;;;;;;;1999.90;999.90;;;;;;;26.56;65.23;94328.16;5095389;28;20275;-59
2022/05/23 10:06:32;;;;;;;1999.90;999.90;;;;;;;26.70;65.01;94326.91;5095238;28;20183;-67
2022/05/23 10:08:58;;;;;;;1999.90;999.90;;;;;;;26.68;66.29;94337.91;5095646;28;20300;-60
2022/05/23 10:11:31;;;;;;;1999.90;999.90;;;;;;;27.01;64.83;94320.53;5095216;28;20184;-54
2022/05/23 10:14:03;;;;;;;1999.90;999.90;;;;;;;26.17;64.17;94324.41;5095792;28;20187;-53
2022/05/23 10:16:32;;;;;;;1999.90;999.90;;;;;;;25.36;66.83;94337.59;5096234;28;20211;-54
2022/05/23 10:19:03;;;;;;;1999.90;999.90;;;;;;;24.83;68.58;94318.03;5116739;28;20267;-54
2022/05/23 10:21:38;;;;;;;1999.90;999.90;;;;;;;24.94;69.88;94318.72;5098583;28;20340;-54
2022/05/23 10:24:11;;;;;;;1999.90;999.90;;;;;;;25.53;68.58;94306.63;5098688;28;20250;-53
2022/05/23 10:26:46;;;;;;;1999.90;999.90;;;;;;;25.44;66.84;94295.84;5098522;28;20183;-55
2022/05/23 10:29:39;;;;;;;1999.90;999.90;;;;;;;26.17;67.75;94291.56;5098763;28;20217;-56
2022/05/23 10:32:08;;;;;;;1999.90;999.90;;;;;;;26.10;65.90;94292.19;5098705;28;20180;-53
2022/05/23 10:34:37;;;;;;;1999.90;999.90;;;;;;;26.36;66.50;94283.16;5098586;28;20184;-55
2022/05/23 10:37:06;;;;;;;1999.90;999.90;;;;;;;25.87;69.90;94288.16;5098538;28;20180;-55
2022/05/23 10:42:44;;;;;;;1999.90;999.90;;;;;;;26.87;68.81;94276.94;5116784;28;20194;-55
2022/05/23 10:45:32;;;;;;;1999.90;999.90;;;;;;;26.71;69.10;94272.41;5098706;28;20191;-63
2022/05/23 10:48:03;;;;;;;1999.90;999.90;;;;;;;26.44;71.72;94261.63;5098888;28;20236;-59
2022/05/23 10:51:07;;;;;;;1999.90;999.90;;;;;;;26.81;69.86;94265.06;5098683;28;20203;-60
2022/05/23 10:54:04;;;;;;;1999.90;999.90;;;;;;;26.49;67.11;94255.94;5098908;28;20192;-60
2022/05/23 10:56:53;;;;;;;1999.90;999.90;;;;;;;26.11;68.30;94262.88;5098354;28;20275;-60
2022/05/23 10:59:31;;;;;;;1999.90;999.90;;;;;;;25.99;67.97;94258.75;5098025;28;20288;-60
2022/05/23 11:02:05;;;;;;;1999.90;999.90;;;;;;;26.23;66.52;94264.25;5098112;28;20251;-60
2022/05/23 11:04:43;;;;;;;1999.90;999.90;;;;;;;26.30;67.74;94255.22;5098234;28;20357;-65
2022/05/23 11:07:27;;;;;;;1999.90;999.90;;;;;;;25.94;67.85;94256.78;5097868;28;20252;-64
2022/05/23 11:10:15;;;;;;;1999.90;999.90;;;;;;;25.94;68.70;94267.97;5098355;28;20207;-65
2022/05/23 11:12:55;;;;;;;1999.90;999.90;;;;;;;26.11;68.59;94271.28;5098099;28;20632;-65
2022/05/23 11:15:39;;;;;;;1999.90;999.90;;;;;;;26.78;68.24;94268.97;5098267;28;20272;-66
2022/05/23 11:18:23;;;;;;;1999.90;999.90;;;;;;;25.55;72.51;94276.13;5098134;28;20203;-65
2022/05/23 11:20:53;;;;;;;1999.90;999.90;;;;;;;25.86;70.46;94269.88;5097888;28;20256;-65
2022/05/23 11:23:32;;;;;;;1999.90;999.90;;;;;;;26.17;69.56;94257.19;5098176;28;20187;-57
2022/05/23 11:26:06;;;;;;;1999.90;999.90;;;;;;;26.69;68.05;94241.34;5097764;28;20188;-57
2022/05/23 11:34:40;;;;;;;1999.90;999.90;;;;;;;27.21;65.03;94235.78;5116119;28;20194;-55
2022/05/23 11:37:42;;;;;;;1999.90;999.90;;;;;;;26.66;67.51;94230.47;5097917;28;20206;-57
2022/05/23 11:40:06;;;;;;;1999.90;999.90;;;;;;;26.64;69.44;94217.00;5115200;28;20180;-61
2022/05/23 11:42:35;;;;;;;1999.90;999.90;;;;;;;26.54;71.49;94217.88;5098270;28;20187;-63
2022/05/23 11:48:01;;;;;;;1999.90;999.90;;;;;;;26.78;66.78;94204.50;5115999;28;20195;-62
2022/05/23 11:50:33;;;;;;;1999.90;999.90;;;;;;;26.81;68.88;94192.19;5097619;28;20203;-63
2022/05/23 11:53:17;;;;;;;1999.90;999.90;;;;;;;26.00;71.43;94198.69;5097554;28;20191;-63
2022/05/23 11:55:55;;;;;;;1999.90;999.90;;;;;;;26.16;71.53;94196.91;5097424;28;20171;-63
2022/05/23 11:58:43;;;;;;;1999.90;999.90;;;;;;;26.19;71.61;94202.22;5097978;28;20211;-60